sensor_id;sensor_type;location;lat;lon;timestamp;pressure;altitude;pressure_sealevel;temperature;humidity
54248;BME280;40161;39.768;2.722;2024-01-30T00:02:22;102866.56;;;7.95;100.00
54248;BME280;40161;39.768;2.722;2024-01-30T00:04:48;102871.09;;;7.85;100.00
54248;BME280;40161;39.768;2.722;2024-01-30T00:07:13;102876.34;;;7.82;100.00
54248;BME280;40161;39.768;2.722;2024-01-30T00:09:39;102854.69;;;7.85;100.00
54248;BME280;40161;39.768;2.722;2024-01-30T00:12:07;102862.44;;;7.97;100.00
54248;BME280;40161;39.768;2.722;2024-01-30T00:14:33;102837.31;;;7.76;100.00
54248;BME280;40161;39.768;2.722;2024-01-30T00:16:59;102877.81;;;7.74;100.00
54248;BME280;40161;39.768;2.722;2024-01-30T00:19:24;102851.56;;;7.73;100.00
54248;BME280;40161;39.768;2.722;2024-01-30T00:21:50;102833.34;;;7.69;100.00
54248;BME280;40161;39.768;2.722;2024-01-30T00:24:15;102871.31;;;7.89;100.00
54248;BME280;40161;39.768;2.722;2024-01-30T00:26:41;102884.09;;;7.94;100.00
54248;BME280;40161;39.768;2.722;2024-01-30T00:29:06;102854.97;;;7.65;100.00
54248;BME280;40161;39.768;2.722;2024-01-30T00:31:32;102824.31;;;7.49;100.00
54248;BME280;40161;39.768;2.722;2024-01-30T00:33:58;102857.94;;;7.69;100.00
54248;BME280;40161;39.768;2.722;2024-01-30T00:36:23;102852.28;;;7.60;100.00
54248;BME280;40161;39.768;2.722;2024-01-30T00:38:49;102872.53;;;7.59;100.00
54248;BME280;40161;39.768;2.722;2024-01-30T00:41:17;102854.16;;;7.65;100.00
54248;BME280;40161;39.768;2.722;2024-01-30T00:43:43;102858.59;;;7.79;100.00
54248;BME280;40161;39.768;2.722;2024-01-30T00:46:08;102859.94;;;7.82;100.00
54248;BME280;40161;39.768;2.722;2024-01-30T00:48:34;102835.84;;;7.65;100.00
54248;BME280;40161;39.768;2.722;2024-01-30T00:51:00;102860.00;;;7.77;100.00
54248;BME280;40161;39.768;2.722;2024-01-30T00:53:26;102827.78;;;7.55;100.00
54248;BME280;40161;39.768;2.722;2024-01-30T00:55:52;102836.66;;;7.84;100.00
54248;BME280;40161;39.768;2.722;2024-01-30T00:58:17;102860.34;;;8.08;100.00
54248;BME280;40161;39.768;2.722;2024-01-30T01:00:44;102851.34;;;8.07;100.00
54248;BME280;40161;39.768;2.722;2024-01-30T01:03:10;102863.16;;;8.22;100.00
54248;BME280;40161;39.768;2.722;2024-01-30T01:05:36;102851.81;;;7.96;100.00
54248;BME280;40161;39.768;2.722;2024-01-30T01:08:01;102856.63;;;7.85;100.00
54248;BME280;40161;39.768;2.722;2024-01-30T01:10:27;102844.91;;;7.42;100.00
54248;BME280;40161;39.768;2.722;2024-01-30T01:12:53;102850.25;;;7.28;100.00
54248;BME280;40161;39.768;2.722;2024-01-30T01:15:19;102831.22;;;7.23;100.00
54248;BME280;40161;39.768;2.722;2024-01-30T01:17:44;102844.41;;;7.58;100.00
54248;BME280;40161;39.768;2.722;2024-01-30T01:20:10;102830.50;;;7.74;100.00
54248;BME280;40161;39.768;2.722;2024-01-30T01:22:37;102858.09;;;7.96;100.00
54248;BME280;40161;39.768;2.722;2024-01-30T01:25:04;102875.47;;;8.05;100.00
54248;BME280;40161;39.768;2.722;2024-01-30T01:27:32;102858.81;;;7.83;100.00
54248;BME280;40161;39.768;2.722;2024-01-30T01:29:59;102847.94;;;7.40;100.00
54248;BME280;40161;39.768;2.722;2024-01-30T01:32:25;102861.50;;;7.26;100.00
54248;BME280;40161;39.768;2.722;2024-01-30T01:34:51;102850.91;;;7.20;100.00
54248;BME280;40161;39.768;2.722;2024-01-30T01:37:17;102853.44;;;7.35;100.00
54248;BME280;40161;39.768;2.722;2024-01-30T01:39:42;102852.50;;;7.45;100.00
54248;BME280;40161;39.768;2.722;2024-01-30T01:42:08;102869.00;;;7.58;100.00
54248;BME280;40161;39.768;2.722;2024-01-30T01:44:33;102865.22;;;7.54;100.00
54248;BME280;40161;39.768;2.722;2024-01-30T01:46:59;102882.56;;;7.64;100.00
54248;BME280;40161;39.768;2.722;2024-01-30T01:49:25;102831.69;;;7.49;100.00
54248;BME280;40161;39.768;2.722;2024-01-30T01:51:54;102876.03;;;7.83;100.00
54248;BME280;40161;39.768;2.722;2024-01-30T01:54:22;102850.09;;;7.19;100.00
54248;BME280;40161;39.768;2.722;2024-01-30T01:56:49;102865.75;;;7.32;100.00
54248;BME280;40161;39.768;2.722;2024-01-30T01:59:15;102850.38;;;7.18;100.00
54248;BME280;40161;39.768;2.722;2024-01-30T02:01:41;102864.09;;;7.36;100.00
54248;BME280;40161;39.768;2.722;2024-01-30T02:04:07;102863.25;;;7.36;100.00
54248;BME280;40161;39.768;2.722;2024-01-30T02:06:34;102865.53;;;7.29;100.00
54248;BME280;40161;39.768;2.722;2024-01-30T02:09:00;102827.19;;;7.15;100.00
54248;BME280;40161;39.768;2.722;2024-01-30T02:11:26;102824.22;;;7.35;100.00
54248;BME280;40161;39.768;2.722;2024-01-30T02:13:52;102851.28;;;7.75;100.00
54248;BME280;40161;39.768;2.722;2024-01-30T02:16:18;102814.78;;;7.66;100.00
54248;BME280;40161;39.768;2.722;2024-01-30T02:18:44;102843.66;;;7.91;100.00
54248;BME280;40161;39.768;2.722;2024-01-30T02:21:16;102827.25;;;7.34;100.00
54248;BME280;40161;39.768;2.722;2024-01-30T02:23:43;102808.44;;;7.08;100.00
54248;BME280;40161;39.768;2.722;2024-01-30T02:26:09;102804.72;;;7.23;100.00
54248;BME280;40161;39.768;2.722;2024-01-30T02:28:34;102832.13;;;7.37;100.00
54248;BME280;40161;39.768;2.722;2024-01-30T02:31:00;102821.91;;;7.24;100.00
54248;BME280;40161;39.768;2.722;2024-01-30T02:33:25;102809.75;;;7.11;100.00
54248;BME280;40161;39.768;2.722;2024-01-30T02:35:51;102825.38;;;7.29;100.00
54248;BME280;40161;39.768;2.722;2024-01-30T02:38:17;102817.59;;;7.18;100.00
54248;BME280;40161;39.768;2.722;2024-01-30T02:40:42;102814.13;;;7.12;100.00
54248;BME280;40161;39.768;2.722;2024-01-30T02:43:08;102830.28;;;7.51;100.00
54248;BME280;40161;39.768;2.722;2024-01-30T02:45:34;102830.28;;;7.70;100.00
54248;BME280;40161;39.768;2.722;2024-01-30T02:47:59;102770.78;;;7.48;100.00
54248;BME280;40161;39.768;2.722;2024-01-30T02:50:25;102821.97;;;7.61;100.00
54248;BME280;40161;39.768;2.722;2024-01-30T02:52:50;102821.78;;;7.34;100.00
54248;BME280;40161;39.768;2.722;2024-01-30T02:55:16;102806.09;;;7.21;100.00
54248;BME280;40161;39.768;2.722;2024-01-30T02:57:43;102813.63;;;7.10;100.00
54248;BME280;40161;39.768;2.722;2024-01-30T03:00:09;102789.31;;;6.84;100.00
54248;BME280;40161;39.768;2.722;2024-01-30T03:02:36;102810.06;;;7.09;100.00
54248;BME280;40161;39.768;2.722;2024-01-30T03:05:02;102804.72;;;6.99;100.00
54248;BME280;40161;39.768;2.722;2024-01-30T03:07:29;102824.81;;;7.08;100.00
54248;BME280;40161;39.768;2.722;2024-01-30T03:09:55;102775.44;;;7.05;100.00
54248;BME280;40161;39.768;2.722;2024-01-30T03:12:21;102768.56;;;6.88;100.00
54248;BME280;40161;39.768;2.722;2024-01-30T03:14:47;102777.56;;;6.89;100.00
54248;BME280;40161;39.768;2.722;2024-01-30T03:17:13;102813.38;;;7.06;100.00
54248;BME280;40161;39.768;2.722;2024-01-30T03:19:38;102806.28;;;7.05;100.00
54248;BME280;40161;39.768;2.722;2024-01-30T03:22:04;102795.31;;;7.10;100.00
54248;BME280;40161;39.768;2.722;2024-01-30T03:24:30;102790.63;;;7.35;100.00
54248;BME280;40161;39.768;2.722;2024-01-30T03:26:56;102798.16;;;7.62;100.00
54248;BME280;40161;39.768;2.722;2024-01-30T03:29:21;102784.84;;;7.18;100.00
54248;BME280;40161;39.768;2.722;2024-01-30T03:31:47;102788.16;;;6.90;100.00
54248;BME280;40161;39.768;2.722;2024-01-30T03:34:12;102776.28;;;6.81;100.00
54248;BME280;40161;39.768;2.722;2024-01-30T03:36:38;102798.09;;;7.05;100.00
54248;BME280;40161;39.768;2.722;2024-01-30T03:39:04;102774.81;;;6.89;100.00
54248;BME280;40161;39.768;2.722;2024-01-30T03:41:30;102794.38;;;6.96;100.00
54248;BME280;40161;39.768;2.722;2024-01-30T03:43:55;102806.13;;;6.97;100.00
54248;BME280;40161;39.768;2.722;2024-01-30T03:46:21;102805.22;;;7.01;100.00
54248;BME280;40161;39.768;2.722;2024-01-30T03:48:47;102792.41;;;7.02;100.00
54248;BME280;40161;39.768;2.722;2024-01-30T03:51:12;102774.38;;;6.82;100.00
54248;BME280;40161;39.768;2.722;2024-01-30T03:53:44;102772.59;;;6.67;100.00
54248;BME280;40161;39.768;2.722;2024-01-30T03:56:12;102808.16;;;6.86;100.00
54248;BME280;40161;39.768;2.722;2024-01-30T03:58:41;102818.44;;;6.94;100.00
54248;BME280;40161;39.768;2.722;2024-01-30T04:01:07;102806.00;;;7.07;100.00
54248;BME280;40161;39.768;2.722;2024-01-30T04:03:37;102751.41;;;6.83;100.00
54248;BME280;40161;39.768;2.722;2024-01-30T04:06:04;102794.66;;;7.19;100.00
54248;BME280;40161;39.768;2.722;2024-01-30T04:08:29;102798.75;;;7.40;100.00
54248;BME280;40161;39.768;2.722;2024-01-30T04:10:55;102766.16;;;7.06;100.00
54248;BME280;40161;39.768;2.722;2024-01-30T04:13:21;102819.41;;;7.27;100.00
54248;BME280;40161;39.768;2.722;2024-01-30T04:15:47;102776.44;;;6.90;100.00
54248;BME280;40161;39.768;2.722;2024-01-30T04:18:12;102818.25;;;6.85;100.00
54248;BME280;40161;39.768;2.722;2024-01-30T04:20:38;102798.94;;;6.53;100.00
54248;BME280;40161;39.768;2.722;2024-01-30T04:23:03;102800.75;;;6.62;100.00
54248;BME280;40161;39.768;2.722;2024-01-30T04:25:29;102806.34;;;6.76;100.00
54248;BME280;40161;39.768;2.722;2024-01-30T04:27:55;102819.22;;;6.95;100.00
54248;BME280;40161;39.768;2.722;2024-01-30T04:30:20;102797.91;;;6.73;100.00
54248;BME280;40161;39.768;2.722;2024-01-30T04:32:46;102813.97;;;6.79;100.00
54248;BME280;40161;39.768;2.722;2024-01-30T04:35:11;102803.69;;;6.71;100.00
54248;BME280;40161;39.768;2.722;2024-01-30T04:37:37;102814.63;;;6.66;100.00
54248;BME280;40161;39.768;2.722;2024-01-30T04:40:03;102813.72;;;7.00;100.00
54248;BME280;40161;39.768;2.722;2024-01-30T04:42:29;102814.41;;;6.86;100.00
54248;BME280;40161;39.768;2.722;2024-01-30T04:44:54;102759.28;;;6.60;100.00
54248;BME280;40161;39.768;2.722;2024-01-30T04:47:20;102784.47;;;6.81;100.00
54248;BME280;40161;39.768;2.722;2024-01-30T04:49:45;102783.63;;;6.81;100.00
54248;BME280;40161;39.768;2.722;2024-01-30T04:52:11;102803.72;;;6.66;100.00
54248;BME280;40161;39.768;2.722;2024-01-30T04:54:37;102806.44;;;6.66;100.00
54248;BME280;40161;39.768;2.722;2024-01-30T04:57:02;102794.97;;;6.40;100.00
54248;BME280;40161;39.768;2.722;2024-01-30T04:59:28;102810.63;;;6.58;100.00
54248;BME280;40161;39.768;2.722;2024-01-30T05:01:54;102804.72;;;6.75;100.00
54248;BME280;40161;39.768;2.722;2024-01-30T05:04:20;102817.69;;;6.88;100.00
54248;BME280;40161;39.768;2.722;2024-01-30T05:06:47;102796.81;;;6.74;100.00
54248;BME280;40161;39.768;2.722;2024-01-30T05:09:13;102815.00;;;7.07;100.00
54248;BME280;40161;39.768;2.722;2024-01-30T05:11:39;102797.94;;;6.97;100.00
54248;BME280;40161;39.768;2.722;2024-01-30T05:14:05;102808.53;;;6.74;100.00
54248;BME280;40161;39.768;2.722;2024-01-30T05:16:31;102806.75;;;6.64;100.00
54248;BME280;40161;39.768;2.722;2024-01-30T05:18:57;102819.94;;;6.52;100.00
54248;BME280;40161;39.768;2.722;2024-01-30T05:21:23;102823.72;;;6.56;100.00
54248;BME280;40161;39.768;2.722;2024-01-30T05:23:49;102818.03;;;6.53;100.00
54248;BME280;40161;39.768;2.722;2024-01-30T05:26:14;102815.28;;;6.58;100.00
54248;BME280;40161;39.768;2.722;2024-01-30T05:28:40;102819.06;;;6.86;100.00
54248;BME280;40161;39.768;2.722;2024-01-30T05:31:06;102840.34;;;7.13;100.00
54248;BME280;40161;39.768;2.722;2024-01-30T05:33:31;102836.56;;;7.09;100.00
54248;BME280;40161;39.768;2.722;2024-01-30T05:35:57;102822.72;;;7.00;100.00
54248;BME280;40161;39.768;2.722;2024-01-30T05:38:23;102848.44;;;6.94;100.00
54248;BME280;40161;39.768;2.722;2024-01-30T05:40:48;102818.50;;;6.60;100.00
54248;BME280;40161;39.768;2.722;2024-01-30T05:43:14;102837.69;;;6.50;100.00
54248;BME280;40161;39.768;2.722;2024-01-30T05:45:40;102824.97;;;6.40;100.00
54248;BME280;40161;39.768;2.722;2024-01-30T05:48:05;102848.34;;;6.51;100.00
54248;BME280;40161;39.768;2.722;2024-01-30T05:50:31;102858.81;;;6.39;100.00
54248;BME280;40161;39.768;2.722;2024-01-30T05:52:57;102842.31;;;6.54;100.00
54248;BME280;40161;39.768;2.722;2024-01-30T05:55:22;102864.91;;;6.60;100.00
54248;BME280;40161;39.768;2.722;2024-01-30T05:57:48;102840.53;;;6.39;100.00
54248;BME280;40161;39.768;2.722;2024-01-30T06:00:14;102850.91;;;6.66;100.00
54248;BME280;40161;39.768;2.722;2024-01-30T06:02:40;102862.97;;;6.60;100.00
54248;BME280;40161;39.768;2.722;2024-01-30T06:05:05;102847.09;;;6.68;100.00
54248;BME280;40161;39.768;2.722;2024-01-30T06:07:31;102847.75;;;6.83;100.00
54248;BME280;40161;39.768;2.722;2024-01-30T06:09:57;102860.19;;;6.95;100.00
54248;BME280;40161;39.768;2.722;2024-01-30T06:12:22;102878.66;;;6.79;100.00
54248;BME280;40161;39.768;2.722;2024-01-30T06:14:48;102862.09;;;6.94;100.00
54248;BME280;40161;39.768;2.722;2024-01-30T06:17:14;102883.44;;;6.92;100.00
54248;BME280;40161;39.768;2.722;2024-01-30T06:19:40;102859.97;;;6.62;100.00
54248;BME280;40161;39.768;2.722;2024-01-30T06:22:05;102864.53;;;6.72;100.00
54248;BME280;40161;39.768;2.722;2024-01-30T06:24:31;102838.88;;;6.44;100.00
54248;BME280;40161;39.768;2.722;2024-01-30T06:26:57;102843.78;;;6.41;100.00
54248;BME280;40161;39.768;2.722;2024-01-30T06:29:22;102878.44;;;6.70;100.00
54248;BME280;40161;39.768;2.722;2024-01-30T06:31:50;102868.13;;;6.91;100.00
54248;BME280;40161;39.768;2.722;2024-01-30T06:34:16;102823.16;;;6.59;100.00
54248;BME280;40161;39.768;2.722;2024-01-30T06:36:41;102845.63;;;6.51;100.00
54248;BME280;40161;39.768;2.722;2024-01-30T06:39:07;102872.91;;;6.51;100.00
54248;BME280;40161;39.768;2.722;2024-01-30T06:41:33;102880.22;;;6.56;100.00
54248;BME280;40161;39.768;2.722;2024-01-30T06:43:59;102890.72;;;6.73;100.00
54248;BME280;40161;39.768;2.722;2024-01-30T06:46:25;102887.69;;;7.03;100.00
54248;BME280;40161;39.768;2.722;2024-01-30T06:48:50;102872.41;;;7.02;100.00
54248;BME280;40161;39.768;2.722;2024-01-30T06:51:16;102880.00;;;7.05;100.00
54248;BME280;40161;39.768;2.722;2024-01-30T06:53:42;102885.31;;;6.92;100.00
54248;BME280;40161;39.768;2.722;2024-01-30T06:56:07;102891.97;;;6.85;100.00
54248;BME280;40161;39.768;2.722;2024-01-30T06:58:33;102891.75;;;6.77;100.00
54248;BME280;40161;39.768;2.722;2024-01-30T07:00:59;102890.34;;;7.08;100.00
54248;BME280;40161;39.768;2.722;2024-01-30T07:03:24;102895.66;;;7.24;100.00
54248;BME280;40161;39.768;2.722;2024-01-30T07:05:50;102925.09;;;7.03;100.00
54248;BME280;40161;39.768;2.722;2024-01-30T07:08:16;102912.75;;;7.05;100.00
54248;BME280;40161;39.768;2.722;2024-01-30T07:10:45;102909.03;;;6.67;100.00
54248;BME280;40161;39.768;2.722;2024-01-30T07:13:11;102918.84;;;6.97;100.00
54248;BME280;40161;39.768;2.722;2024-01-30T07:15:36;102891.66;;;6.87;100.00
54248;BME280;40161;39.768;2.722;2024-01-30T07:18:03;102926.16;;;7.02;100.00
54248;BME280;40161;39.768;2.722;2024-01-30T07:20:30;102912.03;;;7.24;100.00
54248;BME280;40161;39.768;2.722;2024-01-30T07:22:58;102923.78;;;7.24;100.00
54248;BME280;40161;39.768;2.722;2024-01-30T07:25:23;102928.59;;;7.32;100.00
54248;BME280;40161;39.768;2.722;2024-01-30T07:27:53;102922.97;;;7.48;100.00
54248;BME280;40161;39.768;2.722;2024-01-30T07:30:19;102927.19;;;7.35;100.00
54248;BME280;40161;39.768;2.722;2024-01-30T07:32:46;102934.25;;;7.41;100.00
54248;BME280;40161;39.768;2.722;2024-01-30T07:35:11;102913.50;;;7.40;100.00
54248;BME280;40161;39.768;2.722;2024-01-30T07:37:37;102901.63;;;7.26;100.00
54248;BME280;40161;39.768;2.722;2024-01-30T07:40:03;102922.09;;;7.28;100.00
54248;BME280;40161;39.768;2.722;2024-01-30T07:42:29;102928.66;;;7.51;100.00
54248;BME280;40161;39.768;2.722;2024-01-30T07:44:54;102935.28;;;7.21;100.00
54248;BME280;40161;39.768;2.722;2024-01-30T07:47:20;102905.19;;;7.26;100.00
54248;BME280;40161;39.768;2.722;2024-01-30T07:49:46;102923.31;;;7.41;100.00
54248;BME280;40161;39.768;2.722;2024-01-30T07:52:12;102945.44;;;7.40;100.00
54248;BME280;40161;39.768;2.722;2024-01-30T07:54:37;102923.34;;;7.36;100.00
54248;BME280;40161;39.768;2.722;2024-01-30T07:57:04;102957.72;;;7.42;100.00
54248;BME280;40161;39.768;2.722;2024-01-30T07:59:30;102956.97;;;7.36;100.00
54248;BME280;40161;39.768;2.722;2024-01-30T08:01:55;102946.28;;;7.64;100.00
54248;BME280;40161;39.768;2.722;2024-01-30T08:04:21;102918.53;;;7.52;100.00
54248;BME280;40161;39.768;2.722;2024-01-30T08:06:47;102945.38;;;7.69;100.00
54248;BME280;40161;39.768;2.722;2024-01-30T08:09:12;102924.53;;;7.54;100.00
54248;BME280;40161;39.768;2.722;2024-01-30T08:11:38;102957.34;;;7.73;100.00
54248;BME280;40161;39.768;2.722;2024-01-30T08:14:03;102887.47;;;7.24;100.00
54248;BME280;40161;39.768;2.722;2024-01-30T08:16:29;102932.84;;;7.68;100.00
54248;BME280;40161;39.768;2.722;2024-01-30T08:34:19;102966.50;;;8.25;100.00
54248;BME280;40161;39.768;2.722;2024-01-30T08:36:44;102953.50;;;8.17;100.00
54248;BME280;40161;39.768;2.722;2024-01-30T08:39:10;102954.47;;;8.07;100.00
54248;BME280;40161;39.768;2.722;2024-01-30T08:41:36;102940.81;;;7.83;100.00
54248;BME280;40161;39.768;2.722;2024-01-30T08:44:01;102937.44;;;7.91;100.00
54248;BME280;40161;39.768;2.722;2024-01-30T08:46:28;102942.03;;;8.15;100.00
54248;BME280;40161;39.768;2.722;2024-01-30T08:48:54;102954.38;;;7.93;100.00
54248;BME280;40161;39.768;2.722;2024-01-30T08:51:19;102967.59;;;7.86;100.00
54248;BME280;40161;39.768;2.722;2024-01-30T08:53:45;102967.34;;;7.82;100.00
54248;BME280;40161;39.768;2.722;2024-01-30T08:56:10;102975.38;;;8.17;100.00
54248;BME280;40161;39.768;2.722;2024-01-30T08:58:36;102925.63;;;7.96;100.00
54248;BME280;40161;39.768;2.722;2024-01-30T09:01:02;102939.59;;;8.13;100.00
54248;BME280;40161;39.768;2.722;2024-01-30T09:03:29;102976.91;;;8.47;100.00
54248;BME280;40161;39.768;2.722;2024-01-30T09:05:54;102975.53;;;8.25;100.00
54248;BME280;40161;39.768;2.722;2024-01-30T09:08:20;102960.28;;;8.00;100.00
54248;BME280;40161;39.768;2.722;2024-01-30T09:10:46;102977.09;;;8.13;100.00
54248;BME280;40161;39.768;2.722;2024-01-30T09:13:12;102950.25;;;8.15;100.00
54248;BME280;40161;39.768;2.722;2024-01-30T09:15:38;102948.84;;;8.17;100.00
54248;BME280;40161;39.768;2.722;2024-01-30T09:18:04;102944.78;;;8.33;100.00
54248;BME280;40161;39.768;2.722;2024-01-30T09:20:29;102981.31;;;8.62;100.00
54248;BME280;40161;39.768;2.722;2024-01-30T09:22:55;102920.75;;;8.12;100.00
54248;BME280;40161;39.768;2.722;2024-01-30T09:25:20;102924.97;;;8.23;100.00
54248;BME280;40161;39.768;2.722;2024-01-30T09:27:46;102950.09;;;8.63;100.00
54248;BME280;40161;39.768;2.722;2024-01-30T09:30:12;102970.88;;;8.96;100.00
54248;BME280;40161;39.768;2.722;2024-01-30T09:32:39;102994.00;;;9.23;100.00
54248;BME280;40161;39.768;2.722;2024-01-30T09:35:05;102966.41;;;9.61;100.00
54248;BME280;40161;39.768;2.722;2024-01-30T09:37:31;102980.28;;;10.06;100.00
54248;BME280;40161;39.768;2.722;2024-01-30T09:39:57;102994.78;;;10.20;100.00
54248;BME280;40161;39.768;2.722;2024-01-30T09:44:57;102999.00;;;10.54;100.00
54248;BME280;40161;39.768;2.722;2024-01-30T09:47:23;102995.38;;;10.67;100.00
54248;BME280;40161;39.768;2.722;2024-01-30T09:49:49;103005.59;;;10.98;100.00
54248;BME280;40161;39.768;2.722;2024-01-30T09:52:15;102992.97;;;11.19;100.00
54248;BME280;40161;39.768;2.722;2024-01-30T09:54:42;102994.06;;;11.09;100.00
54248;BME280;40161;39.768;2.722;2024-01-30T09:57:09;103027.47;;;11.25;100.00
54248;BME280;40161;39.768;2.722;2024-01-30T09:59:34;102986.75;;;11.05;100.00
54248;BME280;40161;39.768;2.722;2024-01-30T10:02:00;103030.41;;;11.37;100.00
54248;BME280;40161;39.768;2.722;2024-01-30T10:04:26;102998.69;;;11.31;100.00
54248;BME280;40161;39.768;2.722;2024-01-30T10:06:51;103020.91;;;11.44;100.00
54248;BME280;40161;39.768;2.722;2024-01-30T10:09:17;103013.53;;;11.53;100.00
54248;BME280;40161;39.768;2.722;2024-01-30T10:11:43;103012.94;;;11.73;100.00
54248;BME280;40161;39.768;2.722;2024-01-30T10:14:09;102988.50;;;11.72;100.00
54248;BME280;40161;39.768;2.722;2024-01-30T10:16:35;103007.53;;;11.91;100.00
54248;BME280;40161;39.768;2.722;2024-01-30T10:19:00;102995.72;;;11.99;100.00
54248;BME280;40161;39.768;2.722;2024-01-30T10:21:26;102999.78;;;12.01;100.00
54248;BME280;40161;39.768;2.722;2024-01-30T10:23:52;103000.94;;;12.09;100.00
54248;BME280;40161;39.768;2.722;2024-01-30T10:26:17;102996.25;;;12.27;100.00
54248;BME280;40161;39.768;2.722;2024-01-30T10:28:43;102985.06;;;12.23;100.00
54248;BME280;40161;39.768;2.722;2024-01-30T10:31:09;103007.44;;;12.48;100.00
54248;BME280;40161;39.768;2.722;2024-01-30T10:33:34;103002.56;;;12.62;100.00
54248;BME280;40161;39.768;2.722;2024-01-30T10:36:04;102998.84;;;12.75;100.00
54248;BME280;40161;39.768;2.722;2024-01-30T10:38:31;102998.97;;;12.96;100.00
54248;BME280;40161;39.768;2.722;2024-01-30T10:40:58;103010.59;;;13.19;100.00
54248;BME280;40161;39.768;2.722;2024-01-30T10:43:46;103003.47;;;13.27;100.00
54248;BME280;40161;39.768;2.722;2024-01-30T10:46:19;103007.63;;;13.42;100.00
54248;BME280;40161;39.768;2.722;2024-01-30T10:48:50;103007.94;;;13.49;100.00
54248;BME280;40161;39.768;2.722;2024-01-30T10:51:22;102991.22;;;13.45;100.00
54248;BME280;40161;39.768;2.722;2024-01-30T10:53:49;102980.53;;;13.44;100.00
54248;BME280;40161;39.768;2.722;2024-01-30T10:56:16;103010.81;;;13.61;100.00
54248;BME280;40161;39.768;2.722;2024-01-30T10:58:41;102971.91;;;13.45;100.00
54248;BME280;40161;39.768;2.722;2024-01-30T11:01:07;102970.28;;;13.53;100.00
54248;BME280;40161;39.768;2.722;2024-01-30T11:03:34;103004.19;;;13.83;100.00
54248;BME280;40161;39.768;2.722;2024-01-30T11:06:02;102976.66;;;13.74;100.00
54248;BME280;40161;39.768;2.722;2024-01-30T11:08:28;102957.22;;;13.71;100.00
54248;BME280;40161;39.768;2.722;2024-01-30T11:10:57;102948.13;;;13.70;100.00
54248;BME280;40161;39.768;2.722;2024-01-30T11:13:30;102969.88;;;13.93;100.00
54248;BME280;40161;39.768;2.722;2024-01-30T11:16:05;102972.19;;;13.91;100.00
54248;BME280;40161;39.768;2.722;2024-01-30T11:18:32;102965.66;;;13.95;100.00
54248;BME280;40161;39.768;2.722;2024-01-30T11:20:59;102973.50;;;14.14;100.00
54248;BME280;40161;39.768;2.722;2024-01-30T11:23:28;102975.25;;;14.19;100.00
54248;BME280;40161;39.768;2.722;2024-01-30T11:25:55;102953.69;;;14.12;100.00
54248;BME280;40161;39.768;2.722;2024-01-30T11:28:22;102942.63;;;14.12;100.00
54248;BME280;40161;39.768;2.722;2024-01-30T11:30:48;102954.34;;;14.30;100.00
54248;BME280;40161;39.768;2.722;2024-01-30T11:33:29;102978.53;;;14.33;100.00
54248;BME280;40161;39.768;2.722;2024-01-30T11:35:57;102956.56;;;14.58;100.00
54248;BME280;40161;39.768;2.722;2024-01-30T11:38:26;102927.72;;;14.46;100.00
54248;BME280;40161;39.768;2.722;2024-01-30T11:40:54;102936.34;;;14.45;100.00
54248;BME280;40161;39.768;2.722;2024-01-30T11:43:20;102971.84;;;14.76;100.00
54248;BME280;40161;39.768;2.722;2024-01-30T11:45:45;102921.84;;;14.48;100.00
54248;BME280;40161;39.768;2.722;2024-01-30T11:48:12;102906.97;;;14.61;100.00
54248;BME280;40161;39.768;2.722;2024-01-30T11:50:39;102926.72;;;14.84;100.00
54248;BME280;40161;39.768;2.722;2024-01-30T11:53:05;102920.03;;;14.85;100.00
54248;BME280;40161;39.768;2.722;2024-01-30T11:55:31;102947.41;;;15.24;100.00
54248;BME280;40161;39.768;2.722;2024-01-30T11:57:57;102909.38;;;15.08;100.00
54248;BME280;40161;39.768;2.722;2024-01-30T12:00:24;102922.00;;;14.85;100.00
54248;BME280;40161;39.768;2.722;2024-01-30T12:02:54;102886.75;;;14.82;100.00
54248;BME280;40161;39.768;2.722;2024-01-30T12:05:24;102944.84;;;14.94;100.00
54248;BME280;40161;39.768;2.722;2024-01-30T12:07:50;102923.91;;;14.72;100.00
54248;BME280;40161;39.768;2.722;2024-01-30T12:10:16;102913.66;;;14.39;100.00
54248;BME280;40161;39.768;2.722;2024-01-30T12:12:46;102920.25;;;14.47;100.00
54248;BME280;40161;39.768;2.722;2024-01-30T12:15:13;102912.72;;;14.35;100.00
54248;BME280;40161;39.768;2.722;2024-01-30T12:17:39;102910.16;;;14.51;100.00
54248;BME280;40161;39.768;2.722;2024-01-30T12:22:44;102884.03;;;14.28;100.00
54248;BME280;40161;39.768;2.722;2024-01-30T12:25:11;102930.59;;;14.71;100.00
54248;BME280;40161;39.768;2.722;2024-01-30T12:27:43;102909.41;;;14.63;100.00
54248;BME280;40161;39.768;2.722;2024-01-30T12:30:11;102906.53;;;14.59;100.00
54248;BME280;40161;39.768;2.722;2024-01-30T12:32:40;102904.06;;;14.58;100.00
54248;BME280;40161;39.768;2.722;2024-01-30T12:35:14;102855.84;;;14.34;100.00
54248;BME280;40161;39.768;2.722;2024-01-30T12:37:40;102897.88;;;14.40;100.00
54248;BME280;40161;39.768;2.722;2024-01-30T12:40:10;102865.09;;;14.17;100.00
54248;BME280;40161;39.768;2.722;2024-01-30T12:42:36;102873.66;;;14.24;100.00
54248;BME280;40161;39.768;2.722;2024-01-30T12:45:03;102884.44;;;14.17;100.00
54248;BME280;40161;39.768;2.722;2024-01-30T12:47:30;102906.66;;;14.42;100.00
54248;BME280;40161;39.768;2.722;2024-01-30T12:49:55;102895.41;;;14.26;100.00
54248;BME280;40161;39.768;2.722;2024-01-30T12:52:21;102881.22;;;14.15;100.00
54248;BME280;40161;39.768;2.722;2024-01-30T12:54:48;102892.13;;;14.12;100.00
54248;BME280;40161;39.768;2.722;2024-01-30T12:57:14;102892.19;;;14.03;100.00
54248;BME280;40161;39.768;2.722;2024-01-30T12:59:40;102879.00;;;14.09;100.00
54248;BME280;40161;39.768;2.722;2024-01-30T13:02:06;102901.50;;;14.19;100.00
54248;BME280;40161;39.768;2.722;2024-01-30T13:04:32;102877.56;;;14.23;100.00